Etusivu
METAR-TAF:

METAR-TAF

Lentoasemat :

Chengdu, Kiina

Chengdu Shuangliun kansainvälinen lentoasema

Leveyspiiri: 30-40N, Pituuspiiri: 104-01E, korkeus merenpinnasta: 508 m

Tämänhetkinen sää

Tämä raportti tehtiin 1 tunti ja 4 minuuttia sitten, kello 09.00 UTC
Tuuli 17 kn pohjoisesta/koillisesta
Lämpötila 16°C
Kosteus 77%
Ilmanpaine 1020 hPa
Näkyvyys 10 km tai enemmän
Muutamia pilviä 1100 ft:n korkeudessa
Hajanaisia pilviä 3000 ft:n korkeudessa
heikkoa sadetta

METAR: ZUUU 220900Z 03009MPS 9999 -RA FEW011 SCT030 16/12 Q1020 NOSIG

Aika: 18:04 (10:04 UTC)

Sääennuste

Tämä raportti tehtiin 7 tuntia ja 56 minuuttia sitten, kello 02.08 UTC
Ennuste voimassa 22. päivästä klo 06 UTC - 23. päivään klo 06 UTC
Tuuli 6 kn pohjoisesta
Näkyvyys: 5000 m
Hajanaisia pilviä 4000 ft:n korkeudessa
heikkoa sadetta, utua

TAF: ZUUU 220208Z 2206/2306 36003MPS 5000 -RA BR SCT040 TX18/2207Z TN15/2222Z

Säähavainnot ja -ennusteet yli 4000 lentoasemalta (METAR- ja TAF-raportit).

Käytössä olevat sääasemat on merkitty karttaan keltaisilla ja punaisilla pisteillä.

Aseta hiiri pisteen päälle nähdäksesi sääaseman nimen.

Klikkaa sitten nähdäksesi säähavainnot ja -ennusteet.

Kartan vaihtaminen: klikkaa mustalla rastilla varustettuja vihreitä pisteitä, niin voit zoomata sisään; viivalla varustettua vihreää pistettä, niin voit zoomata ulos tai vihreitä nuolia, niin pääset viereisille kartoille.


METAR-TAF: